Queen Of Burnaby — VCVV — position and weather

sailwx.info

Track history (hours):
 
Tides and Currents Weather Stations Pressure Air Temp Water Temp Dewpoint Dewpoint Depression Visibility Wind Speed Wind Dir Waves Ship Positions

Queen Of Burnaby

Last reported at 2016-Sep-24 19:33 UTC. Time now 2016-Sep-24 22:36 UTC.
Position N 49°47' W 124°45'.

Length 130 m; draft 4 m.

MMSI: 316001246.

Date/timePositionNaut miles runAvg speedWind from/ knotsBaromVisibWave heightAir tempDewpointWater temp
2016-Sep-24 19:33N 49°47' W 124°45'9 7.4
2016-Sep-24 18:23N 49°50' W 124°32'1011.6
2016-Sep-24 17:33N 49°47' W 124°46'7 6.2
2016-Sep-24 16:29N 49°44' W 124°55'15 7.8
2016-Sep-24 14:33N 49°50' W 124°34'1 0.1
2016-Sep-24 03:29N 49°50' W 124°32'1213.4
2016-Sep-24 02:33N 49°46' W 124°50'4 3.8
2016-Sep-24 01:32N 49°44' W 124°55'1312.7
2016-Sep-24 00:33N 49°49' W 124°37'2 0.5
2016-Sep-23 19:32N 49°48' W 124°41'3 1.7
2016-Sep-23 17:33N 49°47' W 124°46'7 6.6
2016-Sep-23 16:33N 49°44' W 124°55'1313.3
2016-Sep-23 15:34N 49°49' W 124°36'11 5.6
2016-Sep-23 13:33N 49°45' W 124°53'2 0.5
2016-Sep-23 09:29N 49°44' W 124°55'0 0.0
2016-Sep-23 06:31N 49°44' W 124°55'5 2.5
2016-Sep-23 04:33N 49°46' W 124°48'1111.4
2016-Sep-23 03:33N 49°50' W 124°32'1212.5
2016-Sep-23 02:33N 49°46' W 124°50'4 3.8
2016-Sep-23 01:33N 49°44' W 124°55'1212.2
2016-Sep-23 00:33N 49°49' W 124°38'3 3.4
2016-Sep-22 23:33N 49°50' W 124°33'16 5.0
2016-Sep-22 20:28N 49°44' W 124°55'5 0.3
2016-Sep-22 04:33N 49°47' W 124°48'11 8.5
2016-Sep-22 03:16N 49°50' W 124°32'16 5.9
2016-Sep-22 00:32N 49°44' W 124°55'0 0.0
2016-Sep-21 23:32N 49°44' W 124°55'7 1.9
2016-Sep-21 19:33N 49°47' W 124°45'7 2.5
2016-Sep-21 16:33N 49°44' W 124°55'0 0.0
2016-Sep-21 08:32N 49°44' W 124°55'16 3.2
2016-Sep-21 03:30N 49°50' W 124°32'1313.4
2016-Sep-21 02:33N 49°46' W 124°50'3 0.3
2016-Sep-20 17:33N 49°47' W 124°46'9 3.0
2016-Sep-20 14:33N 49°50' W 124°33'1313.4
2016-Sep-20 13:33N 49°45' W 124°53'2 0.7
2016-Sep-20 10:33N 49°44' W 124°55'0 0.0
2016-Sep-20 08:33N 49°44' W 124°55'0 0.0
2016-Sep-20 07:33N 49°44' W 124°55'0 0.0
2016-Sep-20 06:33N 49°44' W 124°55'3 0.8
2016-Sep-20 02:33N 49°46' W 124°51'12 4.1
2016-Sep-19 23:33N 49°50' W 124°34'4 1.1
2016-Sep-19 19:33N 49°48' W 124°40'5 3.8
2016-Sep-19 18:13N 49°50' W 124°33'16 9.1
2016-Sep-19 16:29N 49°44' W 124°55'16 8.0
2016-Sep-19 14:32N 49°50' W 124°33'1413.9
2016-Sep-19 13:32N 49°45' W 124°53'2 0.8
2016-Sep-19 11:29N 49°44' W 124°55'0 0.0
2016-Sep-19 09:26N 49°44' W 124°55'16 2.7
2016-Sep-19 03:24N 49°50' W 124°32'1315.4
2016-Sep-19 02:33N 49°46' W 124°51'10 4.8
2016-Sep-19 00:32N 49°49' W 124°37'2 0.4
2016-Sep-18 19:18N 49°48' W 124°40'0 0.1
2016-Sep-18 15:33N 49°48' W 124°40'4 3.7
2016-Sep-18 14:33N 49°50' W 124°35'8 0.6
2016-Sep-18 02:33N 49°47' W 124°45'7 1.1
2016-Sep-17 20:15N 49°44' W 124°55'1211.5
2016-Sep-17 19:15N 49°49' W 124°39'10 1.8
2016-Sep-17 13:30N 49°45' W 124°54'1 0.2
2016-Sep-17 07:20N 49°44' W 124°55'5 1.9
2016-Sep-17 04:32N 49°46' W 124°48'6 1.6
2016-Sep-17 00:34N 49°49' W 124°38'5 0.8
2016-Sep-16 17:33N 49°47' W 124°46'5 2.6
2016-Sep-16 15:27N 49°49' W 124°38'12 3.9
2016-Sep-16 12:27N 49°44' W 124°55'16 1.8
2016-Sep-16 03:29N 49°50' W 124°32'1313.6
2016-Sep-16 02:33N 49°46' W 124°50'8 4.2
2016-Sep-16 00:33N 49°49' W 124°38'9 4.5
2016-Sep-15 22:33N 49°46' W 124°51'3 1.4
2016-Sep-15 20:18N 49°44' W 124°55'16 8.5
2016-Sep-15 18:23N 49°50' W 124°32'16 2.7
2016-Sep-15 12:25N 49°44' W 124°55'0 0.0
2016-Sep-15 11:25N 49°44' W 124°55'5 0.7
2016-Sep-15 04:33N 49°47' W 124°48'1110.0
2016-Sep-15 03:26N 49°50' W 124°32'16 8.4
2016-Sep-15 01:30N 49°44' W 124°55'3 1.1
2016-Sep-14 22:32N 49°46' W 124°51'  
Track history (hours):
 
Tides and Currents Weather Stations Pressure Air Temp Water Temp Dewpoint Dewpoint Depression Visibility Wind Speed Wind Dir Waves Ship Positions

Queen Of Burnaby

Last reported at 2016-Sep-24 19:33 UTC. Time now 2016-Sep-24 22:36 UTC.
Position N 49°47' W 124°45'.

Length 130 m; draft 4 m.

MMSI: 316001246.

Date/timePositionNaut miles runAvg speedWind from/ knotsBaromVisibWave heightAir tempDewpointWater temp
2016-Sep-24 19:33N 49°47' W 124°45'9 7.4
2016-Sep-24 18:23N 49°50' W 124°32'1011.6
2016-Sep-24 17:33N 49°47' W 124°46'7 6.2
2016-Sep-24 16:29N 49°44' W 124°55'15 7.8
2016-Sep-24 14:33N 49°50' W 124°34'1 0.1
2016-Sep-24 03:29N 49°50' W 124°32'1213.4
2016-Sep-24 02:33N 49°46' W 124°50'4 3.8
2016-Sep-24 01:32N 49°44' W 124°55'1312.7
2016-Sep-24 00:33N 49°49' W 124°37'2 0.5
2016-Sep-23 19:32N 49°48' W 124°41'3 1.7
2016-Sep-23 17:33N 49°47' W 124°46'7 6.6
2016-Sep-23 16:33N 49°44' W 124°55'1313.3
2016-Sep-23 15:34N 49°49' W 124°36'11 5.6
2016-Sep-23 13:33N 49°45' W 124°53'2 0.5
2016-Sep-23 09:29N 49°44' W 124°55'0 0.0
2016-Sep-23 06:31N 49°44' W 124°55'5 2.5
2016-Sep-23 04:33N 49°46' W 124°48'1111.4
2016-Sep-23 03:33N 49°50' W 124°32'1212.5
2016-Sep-23 02:33N 49°46' W 124°50'4 3.8
2016-Sep-23 01:33N 49°44' W 124°55'1212.2
2016-Sep-23 00:33N 49°49' W 124°38'3 3.4
2016-Sep-22 23:33N 49°50' W 124°33'16 5.0
2016-Sep-22 20:28N 49°44' W 124°55'5 0.3
2016-Sep-22 04:33N 49°47' W 124°48'11 8.5
2016-Sep-22 03:16N 49°50' W 124°32'16 5.9
2016-Sep-22 00:32N 49°44' W 124°55'0 0.0
2016-Sep-21 23:32N 49°44' W 124°55'7 1.9
2016-Sep-21 19:33N 49°47' W 124°45'7 2.5
2016-Sep-21 16:33N 49°44' W 124°55'0 0.0
2016-Sep-21 08:32N 49°44' W 124°55'16 3.2
2016-Sep-21 03:30N 49°50' W 124°32'1313.4
2016-Sep-21 02:33N 49°46' W 124°50'3 0.3
2016-Sep-20 17:33N 49°47' W 124°46'9 3.0
2016-Sep-20 14:33N 49°50' W 124°33'1313.4
2016-Sep-20 13:33N 49°45' W 124°53'2 0.7
2016-Sep-20 10:33N 49°44' W 124°55'0 0.0
2016-Sep-20 08:33N 49°44' W 124°55'0 0.0
2016-Sep-20 07:33N 49°44' W 124°55'0 0.0
2016-Sep-20 06:33N 49°44' W 124°55'3 0.8
2016-Sep-20 02:33N 49°46' W 124°51'12 4.1
2016-Sep-19 23:33N 49°50' W 124°34'4 1.1
2016-Sep-19 19:33N 49°48' W 124°40'5 3.8
2016-Sep-19 18:13N 49°50' W 124°33'16 9.1
2016-Sep-19 16:29N 49°44' W 124°55'16 8.0
2016-Sep-19 14:32N 49°50' W 124°33'1413.9
2016-Sep-19 13:32N 49°45' W 124°53'2 0.8
2016-Sep-19 11:29N 49°44' W 124°55'0 0.0
2016-Sep-19 09:26N 49°44' W 124°55'16 2.7
2016-Sep-19 03:24N 49°50' W 124°32'1315.4
2016-Sep-19 02:33N 49°46' W 124°51'10 4.8
2016-Sep-19 00:32N 49°49' W 124°37'2 0.4
2016-Sep-18 19:18N 49°48' W 124°40'0 0.1
2016-Sep-18 15:33N 49°48' W 124°40'4 3.7
2016-Sep-18 14:33N 49°50' W 124°35'8 0.6
2016-Sep-18 02:33N 49°47' W 124°45'7 1.1
2016-Sep-17 20:15N 49°44' W 124°55'1211.5
2016-Sep-17 19:15N 49°49' W 124°39'10 1.8
2016-Sep-17 13:30N 49°45' W 124°54'1 0.2
2016-Sep-17 07:20N 49°44' W 124°55'5 1.9
2016-Sep-17 04:32N 49°46' W 124°48'6 1.6
2016-Sep-17 00:34N 49°49' W 124°38'5 0.8
2016-Sep-16 17:33N 49°47' W 124°46'5 2.6
2016-Sep-16 15:27N 49°49' W 124°38'12 3.9
2016-Sep-16 12:27N 49°44' W 124°55'16 1.8
2016-Sep-16 03:29N 49°50' W 124°32'1313.6
2016-Sep-16 02:33N 49°46' W 124°50'8 4.2
2016-Sep-16 00:33N 49°49' W 124°38'9 4.5
2016-Sep-15 22:33N 49°46' W 124°51'3 1.4
2016-Sep-15 20:18N 49°44' W 124°55'16 8.5
2016-Sep-15 18:23N 49°50' W 124°32'16 2.7
2016-Sep-15 12:25N 49°44' W 124°55'0 0.0
2016-Sep-15 11:25N 49°44' W 124°55'5 0.7
2016-Sep-15 04:33N 49°47' W 124°48'1110.0
2016-Sep-15 03:26N 49°50' W 124°32'16 8.4
2016-Sep-15 01:30N 49°44' W 124°55'3 1.1
2016-Sep-14 22:32N 49°46' W 124°51'  

Dump ship's entire track history